Time;durP1;ratioP1;P1;durP2;ratioP2;P2;SDS_P1;SDS_P2;PMS_P1;PMS_P2;Temp;Humidity;BMP_temperature;BMP_pressure;BME280_temperature;BME280_humidity;BME280_pressure;Samples;Min_cycle;Max_cycle;Signal;HPM_P1;HPM_P2
2023/01/25 00:01:45;;;;;;;22.35;15.00;;;;;;;0.83;66.17;102510.38;1772802;81;21200;-54
2023/01/25 00:04:51;;;;;;;24.05;15.72;;;;;;;0.72;66.14;102508.13;1796658;79;21378;-54
2023/01/25 00:07:58;;;;;;;30.43;17.42;;;;;;;0.71;66.26;102504.16;1807250;79;21303;-54
2023/01/25 00:11:03;;;;;;;27.90;16.55;;;;;;;0.72;66.34;102504.09;1811330;79;21208;-54
2023/01/25 00:14:10;;;;;;;29.42;16.48;;;;;;;0.72;66.33;102496.46;1810865;79;21208;-53
2023/01/25 00:17:15;;;;;;;32.53;16.50;;;;;;;0.71;66.35;102498.30;1811320;79;21314;-54
2023/01/25 00:20:22;;;;;;;29.72;14.68;;;;;;;0.70;66.35;102494.33;1772019;80;21287;-53
2023/01/25 00:23:28;;;;;;;23.80;14.58;;;;;;;0.74;66.45;102494.13;1781142;80;21232;-53
2023/01/25 00:26:36;;;;;;;30.32;16.60;;;;;;;0.76;66.48;102488.19;1795316;80;21228;-53
2023/01/25 00:29:42;;;;;;;55.28;26.50;;;;;;;0.68;66.17;102480.02;1794278;79;21699;-53
2023/01/25 00:33:00;;;;;;;38.05;21.45;;;;;;;0.52;65.96;102491.00;1747069;82;21201;-53
2023/01/25 00:36:06;;;;;;;28.45;15.65;;;;;;;0.39;65.86;102491.95;1771279;80;21225;-53
2023/01/25 00:39:12;;;;;;;37.65;20.43;;;;;;;0.35;66.08;102489.45;1783933;80;21198;-53
2023/01/25 00:42:20;;;;;;;42.03;21.50;;;;;;;0.43;66.35;102492.23;1783680;80;21193;-53
2023/01/25 00:45:26;;;;;;;29.23;16.32;;;;;;;0.49;66.54;102486.59;1783647;80;21746;-54
2023/01/25 00:48:32;;;;;;;25.97;14.93;;;;;;;0.50;66.48;102481.63;1783761;79;21174;-53
2023/01/25 00:51:40;;;;;;;29.92;15.48;;;;;;;0.54;66.56;102478.36;1783636;80;21193;-53
2023/01/25 00:54:46;;;;;;;25.80;15.25;;;;;;;0.58;66.60;102477.28;1783606;79;21355;-53
2023/01/25 00:57:52;;;;;;;40.05;19.52;;;;;;;0.57;66.42;102465.61;1803436;79;21212;-53
2023/01/25 01:00:59;;;;;;;40.75;20.57;;;;;;;0.57;66.41;102467.45;1803455;79;21217;-53
2023/01/25 01:04:05;;;;;;;43.33;20.25;;;;;;;0.61;66.50;102470.41;1762654;79;21288;-53
2023/01/25 01:07:10;;;;;;;34.98;17.90;;;;;;;0.62;66.47;102466.31;1800442;79;21197;-53
2023/01/25 01:10:16;;;;;;;32.28;16.40;;;;;;;0.60;66.26;102458.78;1782115;79;21208;-53
2023/01/25 01:13:21;;;;;;;24.05;14.80;;;;;;;0.55;66.02;102455.39;1784821;79;21192;-53
2023/01/25 01:16:28;;;;;;;28.77;15.98;;;;;;;0.52;66.21;102459.56;1803439;79;21512;-54
2023/01/25 01:19:33;;;;;;;22.75;14.40;;;;;;;0.55;66.33;102456.73;1803421;79;21345;-53
2023/01/25 01:22:40;;;;;;;26.07;15.43;;;;;;;0.55;66.25;102463.94;1803434;79;21201;-54
2023/01/25 01:25:46;;;;;;;25.40;15.53;;;;;;;0.55;66.19;102462.12;1803446;79;21248;-53
2023/01/25 01:28:52;;;;;;;22.95;15.25;;;;;;;0.53;66.20;102458.61;1803429;79;21189;-53
2023/01/25 01:31:59;;;;;;;25.12;15.25;;;;;;;0.54;66.17;102468.43;1803449;79;21292;-53
2023/01/25 01:35:06;;;;;;;29.57;15.00;;;;;;;0.57;66.29;102465.61;1803475;79;21205;-55
2023/01/25 01:38:13;;;;;;;25.82;15.58;;;;;;;0.63;66.50;102469.44;1803344;79;21189;-54
2023/01/25 01:41:20;;;;;;;23.80;15.65;;;;;;;0.66;66.44;102473.81;1803437;79;21232;-52
2023/01/25 01:44:27;;;;;;;25.80;15.00;;;;;;;0.63;66.46;102469.44;1783826;79;21208;-53
2023/01/25 01:47:48;;;;;;;27.65;17.02;;;;;;;0.62;66.41;102474.39;1803389;79;21244;-52
2023/01/25 01:50:56;;;;;;;33.53;18.62;;;;;;;0.56;66.31;102465.67;1803465;79;21221;-54
2023/01/25 01:54:22;;;;;;;29.95;18.17;;;;;;;0.58;66.51;102464.70;1803393;79;21280;-52
2023/01/25 01:57:35;;;;;;;34.88;20.10;;;;;;;0.62;66.61;102462.27;1803429;79;21181;-53
2023/01/25 02:00:45;;;;;;;35.13;19.05;;;;;;;0.66;66.70;102457.64;1803310;79;21192;-53
2023/01/25 02:03:50;;;;;;;36.95;21.50;;;;;;;0.63;66.59;102451.92;1803384;79;21200;-53
2023/01/25 02:07:06;;;;;;;39.70;19.92;;;;;;;0.62;66.66;102448.80;1805352;79;21192;-54
2023/01/25 02:10:16;;;;;;;42.30;22.30;;;;;;;0.64;66.74;102445.58;1793140;79;21740;-54
2023/01/25 02:13:22;;;;;;;32.33;19.07;;;;;;;0.66;66.75;102446.40;1813248;79;21196;-52
2023/01/25 02:16:32;;;;;;;38.35;21.90;;;;;;;0.65;66.79;102441.08;1813262;79;21180;-52
2023/01/25 02:20:13;;;;;;;31.50;18.90;;;;;;;0.52;66.49;102446.55;1813298;79;21347;-53
2023/01/25 02:23:39;;;;;;;32.45;18.62;;;;;;;0.46;66.49;102451.70;1813318;79;21204;-53
2023/01/25 02:26:46;;;;;;;38.23;18.30;;;;;;;0.40;66.48;102445.21;1813255;79;21176;-54
2023/01/25 02:29:51;;;;;;;32.88;18.37;;;;;;;0.40;66.58;102449.25;1813232;79;21196;-53
2023/01/25 02:32:57;;;;;;;30.62;18.27;;;;;;;0.41;66.73;102443.41;1813358;79;21168;-53
2023/01/25 02:36:20;;;;;;;30.55;17.02;;;;;;;0.48;66.88;102449.83;1793156;79;21196;-53
2023/01/25 02:39:26;;;;;;;25.17;16.00;;;;;;;0.55;66.98;102445.96;1813093;79;21224;-54
2023/01/25 02:42:36;;;;;;;26.77;15.70;;;;;;;0.59;66.92;102448.92;1792908;79;21186;-52
2023/01/25 02:45:42;;;;;;;30.80;16.02;;;;;;;0.63;67.00;102438.91;1813287;79;21338;-52
2023/01/25 02:48:49;;;;;;;29.57;16.00;;;;;;;0.66;66.99;102441.02;1813198;79;21200;-52
2023/01/25 02:51:57;;;;;;;34.27;16.70;;;;;;;0.69;66.97;102440.88;1813277;79;21352;-52
2023/01/25 02:55:03;;;;;;;25.12;15.05;;;;;;;0.70;66.96;102426.95;1813238;79;21208;-53
2023/01/25 02:58:11;;;;;;;24.60;14.38;;;;;;;0.72;66.94;102420.53;1813350;79;21181;-53
2023/01/25 03:01:17;;;;;;;26.12;15.75;;;;;;;0.69;66.89;102422.02;1813326;79;21188;-53
2023/01/25 03:04:23;;;;;;;24.40;15.63;;;;;;;0.68;66.86;102428.33;1813361;79;21196;-54
2023/01/25 03:07:31;;;;;;;27.00;16.27;;;;;;;0.66;66.84;102428.88;1806814;79;21813;-54
2023/01/25 03:10:36;;;;;;;41.77;20.68;;;;;;;0.59;66.79;102426.48;1808295;79;21236;-54
2023/01/25 03:13:43;;;;;;;40.83;20.23;;;;;;;0.59;66.90;102419.28;1811959;79;21235;-54
2023/01/25 03:16:50;;;;;;;30.48;17.23;;;;;;;0.53;66.79;102420.89;1813519;79;21188;-52
2023/01/25 03:19:56;;;;;;;39.08;20.12;;;;;;;0.48;66.80;102420.19;1813382;79;21389;-53
2023/01/25 03:23:03;;;;;;;88.33;34.43;;;;;;;0.48;66.88;102418.84;1813453;79;21270;-54
2023/01/25 03:26:23;;;;;;;43.10;20.60;;;;;;;0.50;66.96;102422.36;1813360;79;21308;-53
2023/01/25 03:29:32;;;;;;;34.60;20.00;;;;;;;0.55;67.03;102418.12;1813523;79;21259;-54
2023/01/25 03:32:38;;;;;;;32.98;18.20;;;;;;;0.51;66.91;102426.80;1813436;79;21693;-54
2023/01/25 03:35:46;;;;;;;52.25;25.75;;;;;;;0.49;66.89;102427.32;1813608;79;21232;-54
2023/01/25 03:38:51;;;;;;;42.88;21.42;;;;;;;0.45;66.87;102425.70;1813322;79;21172;-52
2023/01/25 03:41:58;;;;;;;75.87;30.92;;;;;;;0.48;66.94;102434.13;1813528;79;21192;-53
2023/01/25 03:45:05;;;;;;;38.25;19.80;;;;;;;0.43;66.80;102437.00;1813252;79;21243;-52
2023/01/25 03:48:11;;;;;;;30.72;17.37;;;;;;;0.37;66.86;102434.56;1813411;79;21235;-53
2023/01/25 03:51:17;;;;;;;29.48;17.00;;;;;;;0.37;66.93;102433.22;1813421;79;21177;-53
2023/01/25 03:54:24;;;;;;;30.82;16.25;;;;;;;0.41;66.98;102432.17;1813350;79;21212;-52
2023/01/25 03:57:31;;;;;;;29.87;17.25;;;;;;;0.46;67.06;102432.84;1813304;79;21181;-52
2023/01/25 04:00:38;;;;;;;45.48;23.32;;;;;;;0.52;67.11;102439.34;1813500;79;21295;-52
2023/01/25 04:03:43;;;;;;;37.93;20.62;;;;;;;0.49;67.00;102435.41;1793081;79;21181;-52
2023/01/25 04:06:50;;;;;;;34.88;18.90;;;;;;;0.38;66.92;102442.19;1790740;79;21181;-53
2023/01/25 04:09:54;;;;;;;39.40;19.85;;;;;;;0.39;67.04;102444.81;1812800;77;21200;-52
2023/01/25 04:13:04;;;;;;;35.80;19.62;;;;;;;0.41;67.13;102445.64;1813466;79;21268;-52
2023/01/25 04:16:12;;;;;;;32.58;17.00;;;;;;;0.47;67.18;102444.50;1794010;78;21192;-53
2023/01/25 04:19:24;;;;;;;33.65;17.42;;;;;;;0.50;67.19;102451.11;1794543;79;21184;-52
2023/01/25 04:22:31;;;;;;;34.10;17.32;;;;;;;0.41;66.98;102445.64;1813343;79;21173;-52
2023/01/25 04:25:37;;;;;;;34.20;17.80;;;;;;;0.36;66.96;102443.59;1813300;79;21248;-53
2023/01/25 04:28:42;;;;;;;36.93;18.82;;;;;;;0.34;66.97;102445.46;1813316;79;21177;-52
2023/01/25 04:31:50;;;;;;;31.50;18.27;;;;;;;0.25;66.78;102453.91;1813320;79;21169;-52
2023/01/25 04:34:56;;;;;;;38.67;20.85;;;;;;;0.22;66.88;102443.27;1813330;79;21239;-51
2023/01/25 04:38:03;;;;;;;40.48;21.27;;;;;;;0.26;67.08;102450.73;1813357;79;21211;-52
2023/01/25 04:41:08;;;;;;;39.20;21.70;;;;;;;0.33;67.27;102446.87;1813312;79;21557;-52
2023/01/25 04:44:14;;;;;;;28.95;16.45;;;;;;;0.38;67.19;102452.96;1813314;79;21752;-52
2023/01/25 04:47:21;;;;;;;25.40;14.98;;;;;;;0.36;67.17;102455.72;1795043;79;21252;-52
2023/01/25 04:50:28;;;;;;;25.48;15.23;;;;;;;0.40;67.22;102456.48;1813479;79;21208;-52
2023/01/25 04:53:35;;;;;;;28.23;15.78;;;;;;;0.44;67.29;102452.25;1813359;79;21421;-52
2023/01/25 04:56:41;;;;;;;29.25;15.40;;;;;;;0.49;67.30;102452.06;1813133;79;21646;-52
2023/01/25 04:59:47;;;;;;;25.95;15.18;;;;;;;0.51;67.29;102455.09;1813354;79;21212;-52
2023/01/25 05:02:52;;;;;;;25.08;14.83;;;;;;;0.55;67.35;102459.44;1813374;79;21239;-52
2023/01/25 05:05:59;;;;;;;32.70;17.67;;;;;;;0.54;67.21;102460.34;1813399;79;21220;-53
2023/01/25 05:09:04;;;;;;;30.92;17.17;;;;;;;0.55;67.22;102460.78;1781077;80;21220;-53
2023/01/25 05:12:12;;;;;;;28.47;15.10;;;;;;;0.48;67.00;102459.26;1779620;80;21205;-53
2023/01/25 05:15:23;;;;;;;23.50;14.18;;;;;;;0.50;67.13;102462.78;1749226;81;21219;-52
2023/01/25 05:18:29;;;;;;;28.35;16.93;;;;;;;0.54;67.29;102461.70;1740675;81;21237;-53
2023/01/25 05:26:59;;;;;;;30.15;16.67;;;;;;;0.60;67.33;102474.95;1737484;81;21229;-51
2023/01/25 05:28:13;;;;;;;32.13;17.32;;;;;;;0.54;67.16;102471.13;1708356;84;21384;-53
2023/01/25 05:31:29;;;;;;;30.17;17.35;;;;;;;0.56;67.23;102471.06;1693830;83;21200;-52
2023/01/25 05:34:22;;;;;;;35.33;17.55;;;;;;;0.58;67.19;102477.28;1760406;80;21742;-52
2023/01/25 05:37:28;;;;;;;32.50;16.55;;;;;;;0.59;67.19;102472.28;1738694;81;21193;-52
2023/01/25 05:40:36;;;;;;;34.15;17.50;;;;;;;0.56;67.03;102477.34;1737355;82;21253;-52
2023/01/25 05:43:41;;;;;;;35.00;19.42;;;;;;;0.52;66.97;102475.72;1737642;82;21296;-52
2023/01/25 05:46:49;;;;;;;28.62;16.85;;;;;;;0.48;67.03;102477.23;1738094;81;21257;-52
2023/01/25 05:49:55;;;;;;;27.40;16.27;;;;;;;0.50;67.11;102480.75;1754822;81;21225;-53
2023/01/25 05:53:20;;;;;;;35.58;19.80;;;;;;;0.48;67.11;102482.16;1772793;79;21586;-51
2023/01/25 05:56:26;;;;;;;119.37;48.87;;;;;;;0.50;67.20;102473.55;1740433;80;21197;-51
2023/01/25 05:59:32;;;;;;;95.28;44.83;;;;;;;0.55;67.28;102472.02;1737826;82;21712;-52
2023/01/25 06:02:42;;;;;;;65.37;31.50;;;;;;;0.57;67.32;102462.92;1740863;81;21243;-50
2023/01/25 06:05:49;;;;;;;77.92;35.55;;;;;;;0.59;67.19;102465.55;1755371;80;21219;-52
2023/01/25 06:08:56;;;;;;;43.78;22.07;;;;;;;0.50;66.96;102476.25;1787510;79;21193;-51
2023/01/25 06:12:05;;;;;;;125.30;57.03;;;;;;;0.53;67.13;102471.19;1799520;78;21523;-53
2023/01/25 06:15:13;;;;;;;84.60;37.98;;;;;;;0.57;67.17;102478.23;1804320;79;21354;-52
2023/01/25 06:18:20;;;;;;;67.47;30.72;;;;;;;0.62;67.27;102474.39;1804573;79;21311;-52
2023/01/25 06:21:31;;;;;;;49.53;23.12;;;;;;;0.62;67.07;102473.05;1803892;79;21173;-53
2023/01/25 06:24:36;;;;;;;32.98;16.20;;;;;;;0.63;67.02;102474.83;1787509;79;21224;-52
2023/01/25 06:27:44;;;;;;;81.72;34.53;;;;;;;0.66;67.05;102466.61;1797927;79;21184;-52
2023/01/25 06:30:50;;;;;;;65.75;27.93;;;;;;;0.73;67.11;102468.09;1785521;79;21591;-52
2023/01/25 06:34:03;;;;;;;75.95;30.62;;;;;;;0.76;67.02;102465.27;1796435;79;21236;-52
2023/01/25 06:37:08;;;;;;;42.40;19.37;;;;;;;0.74;66.88;102476.61;1799289;78;22161;-53
2023/01/25 06:40:14;;;;;;;29.10;16.17;;;;;;;0.70;66.85;102468.72;1743669;79;21263;-52
2023/01/25 06:43:20;;;;;;;28.27;14.87;;;;;;;0.72;66.83;102473.09;1779237;80;21201;-51
2023/01/25 06:46:26;;;;;;;22.95;14.78;;;;;;;0.69;66.70;102470.53;1771351;81;21232;-53
2023/01/25 06:49:32;;;;;;;25.17;15.05;;;;;;;0.67;66.76;102473.75;1772297;79;21213;-52
2023/01/25 06:52:37;;;;;;;31.12;14.95;;;;;;;0.64;66.73;102468.94;1779694;79;21757;-52
2023/01/25 06:55:44;;;;;;;26.20;15.78;;;;;;;0.65;66.77;102458.09;1772163;79;21402;-52
2023/01/25 06:58:51;;;;;;;33.35;22.45;;;;;;;0.61;66.61;102460.53;1766494;80;21165;-52
2023/01/25 07:01:57;;;;;;;27.58;15.63;;;;;;;0.56;66.61;102453.55;1766145;80;21710;-50
2023/01/25 07:05:07;;;;;;;24.50;14.90;;;;;;;0.64;66.85;102450.97;1777549;79;21809;-54
2023/01/25 07:08:13;;;;;;;25.15;15.65;;;;;;;0.71;66.92;102444.86;1766741;80;21185;-54
2023/01/25 07:11:21;;;;;;;28.65;16.75;;;;;;;0.74;66.93;102444.27;1798978;79;21284;-54
2023/01/25 07:14:29;;;;;;;30.37;16.55;;;;;;;0.77;66.96;102452.23;1776723;79;21672;-51
2023/01/25 07:17:39;;;;;;;32.65;18.67;;;;;;;0.81;66.91;102443.05;1719659;81;21185;-53
2023/01/25 07:20:42;;;;;;;29.65;15.60;;;;;;;0.84;66.87;102440.23;1725654;82;21785;-53
2023/01/25 07:23:49;;;;;;;54.35;22.40;;;;;;;0.90;66.99;102435.95;1781191;79;21455;-59
2023/01/25 07:27:00;;;;;;;32.83;18.07;;;;;;;0.99;67.09;102434.20;1734268;81;21241;-59
2023/01/25 07:30:06;;;;;;;55.40;24.98;;;;;;;1.10;67.11;102434.63;1726595;82;21189;-60
2023/01/25 07:33:11;;;;;;;68.95;30.17;;;;;;;1.14;67.03;102432.68;1773775;80;21842;-57
2023/01/25 07:36:30;;;;;;;51.68;26.40;;;;;;;1.21;67.08;102436.39;1773156;79;21242;-58
2023/01/25 07:39:51;;;;;;;42.27;21.55;;;;;;;1.32;67.12;102430.52;1777060;79;21224;-58
2023/01/25 07:42:58;;;;;;;37.15;19.07;;;;;;;1.39;67.10;102432.90;1788709;78;21171;-58
2023/01/25 07:46:12;;;;;;;38.25;20.80;;;;;;;1.42;66.91;102430.06;1773096;80;21521;-59
2023/01/25 07:49:18;;;;;;;;;;;;;;;1.40;66.71;102419.80;1775169;79;21194;-58
2023/01/25 07:52:24;;;;;;;40.70;22.32;;;;;;;1.37;66.70;102427.14;1789112;79;20224;-58
2023/01/25 07:55:31;;;;;;;38.92;20.50;;;;;;;1.42;66.88;102423.31;1772116;78;21570;-59
2023/01/25 07:58:40;;;;;;;33.95;19.65;;;;;;;1.53;66.99;102421.02;1744942;80;21560;-59
2023/01/25 08:01:46;;;;;;;39.55;22.48;;;;;;;1.60;66.91;102412.63;1772022;80;21730;-60
2023/01/25 08:04:54;;;;;;;36.10;24.40;;;;;;;1.65;66.84;102410.61;1790285;80;21346;-59
2023/01/25 08:08:01;;;;;;;27.13;18.35;;;;;;;1.73;66.84;102415.19;1781754;79;21256;-59
2023/01/25 08:11:19;;;;;;;40.75;23.55;;;;;;;1.64;66.56;102423.22;1795137;79;21189;-60
2023/01/25 08:14:24;;;;;;;27.93;17.30;;;;;;;1.62;66.60;102418.84;1792490;79;21241;-59
2023/01/25 08:17:33;;;;;;;36.23;20.92;;;;;;;1.58;66.40;102421.27;1779540;80;21362;-58
2023/01/25 08:20:40;;;;;;;27.15;17.05;;;;;;;1.53;66.53;102427.76;1797168;80;21247;-58
2023/01/25 08:23:49;;;;;;;29.57;16.42;;;;;;;1.51;66.51;102422.89;1797392;80;21227;-58
2023/01/25 08:26:59;;;;;;;58.00;20.20;;;;;;;1.42;66.43;102427.83;1794505;80;21746;-58
2023/01/25 08:30:06;;;;;;;26.33;17.73;;;;;;;1.39;66.47;102427.50;1795520;79;21236;-58
2023/01/25 08:33:12;;;;;;;27.15;18.17;;;;;;;1.45;66.67;102429.03;1754847;81;21271;-59
2023/01/25 08:36:26;;;;;;;25.35;18.42;;;;;;;1.44;66.60;102438.94;1768213;79;22027;-59
2023/01/25 08:39:31;;;;;;;26.80;17.80;;;;;;;1.47;66.68;102437.45;1784224;79;21240;-54
2023/01/25 08:42:38;;;;;;;40.28;20.55;;;;;;;1.54;66.79;102433.55;1759482;79;21272;-53
2023/01/25 08:45:43;;;;;;;26.70;18.10;;;;;;;1.62;66.78;102434.55;1722143;82;21222;-52
2023/01/25 08:48:48;;;;;;;33.13;19.65;;;;;;;1.64;66.77;102426.37;1771316;80;21710;-53
2023/01/25 08:51:54;;;;;;;32.65;19.98;;;;;;;1.59;66.62;102424.39;1787531;78;21197;-52
2023/01/25 08:55:00;;;;;;;31.57;19.87;;;;;;;1.59;66.67;102424.39;1742749;81;21726;-53
2023/01/25 08:58:09;;;;;;;37.63;21.65;;;;;;;1.66;66.69;102415.05;1751545;79;21192;-51
2023/01/25 09:01:25;;;;;;;31.75;18.82;;;;;;;1.65;66.59;102415.51;1782989;79;21491;-52
2023/01/25 09:04:45;;;;;;;29.55;19.35;;;;;;;1.69;66.61;102415.79;1711919;81;21355;-52
2023/01/25 09:07:51;;;;;;;34.38;19.42;;;;;;;1.69;66.60;102410.86;1741785;81;21189;-52
2023/01/25 09:11:01;;;;;;;28.50;18.65;;;;;;;1.74;66.70;102410.17;1723017;80;21238;-52
2023/01/25 09:14:07;;;;;;;44.20;18.48;;;;;;;1.82;66.81;102399.44;1803262;78;21209;-51
2023/01/25 09:17:14;;;;;;;60.08;25.08;;;;;;;1.94;66.91;102408.77;1728577;81;21215;-51
2023/01/25 09:20:21;;;;;;;57.58;24.90;;;;;;;2.09;67.01;102406.25;1703156;83;21790;-51
2023/01/25 09:23:29;;;;;;;45.33;22.20;;;;;;;2.21;66.93;102404.77;1701235;82;21209;-51
2023/01/25 09:26:47;;;;;;;81.15;40.28;;;;;;;2.15;66.58;102399.20;1747090;80;21926;-51
2023/01/25 09:29:59;;;;;;;32.65;18.95;;;;;;;2.13;66.55;102392.09;1748542;81;21243;-53
2023/01/25 09:33:08;;;;;;;84.60;50.15;;;;;;;2.13;66.40;102390.74;1740556;81;21833;-52
2023/01/25 09:36:15;;;;;;;36.95;23.70;;;;;;;2.06;66.40;102378.50;1727410;81;21308;-52
2023/01/25 09:39:23;;;;;;;27.55;18.37;;;;;;;2.04;66.38;102377.23;1748227;79;21256;-53
2023/01/25 09:43:02;;;;;;;27.73;15.80;;;;;;;2.12;66.48;102379.55;1762494;80;21212;-52
2023/01/25 09:46:13;;;;;;;26.30;17.55;;;;;;;2.19;66.45;102367.02;1745434;80;21347;-52
2023/01/25 09:49:38;;;;;;;29.98;16.80;;;;;;;2.31;66.65;102362.85;1769782;80;21204;-53
2023/01/25 09:53:25;;;;;;;21.07;14.05;;;;;;;2.53;66.81;102358.13;1775065;80;21546;-54
2023/01/25 09:56:36;;;;;;;22.50;14.95;;;;;;;2.69;66.72;102342.42;1767569;78;21388;-52
2023/01/25 09:59:41;;;;;;;21.52;16.12;;;;;;;2.84;66.49;102347.50;1765600;80;21227;-51
2023/01/25 10:03:02;;;;;;;27.58;15.48;;;;;;;2.86;66.25;102342.43;1757117;79;21251;-53
2023/01/25 10:06:09;;;;;;;25.80;15.83;;;;;;;2.97;66.42;102341.39;1735753;81;21165;-52
2023/01/25 10:09:50;;;;;;;26.02;15.70;;;;;;;3.11;66.36;102337.95;1775194;80;21192;-52
2023/01/25 10:12:58;;;;;;;30.80;17.37;;;;;;;3.14;66.16;102336.44;1775373;80;21200;-52
2023/01/25 10:16:18;;;;;;;32.35;18.07;;;;;;;3.16;66.18;102333.65;1761528;80;21232;-53
2023/01/25 10:19:40;;;;;;;22.02;14.73;;;;;;;3.24;66.19;102330.06;1743138;80;21204;-53
2023/01/25 10:22:55;;;;;;;20.23;15.05;;;;;;;3.30;66.24;102327.91;1766613;81;21197;-54
2023/01/25 10:26:07;;;;;;;24.37;15.65;;;;;;;3.30;66.05;102324.34;1766774;81;21854;-53
2023/01/25 10:29:22;;;;;;;21.27;14.30;;;;;;;3.35;66.15;102319.06;1779226;79;21279;-52
2023/01/25 10:32:33;;;;;;;27.65;16.00;;;;;;;3.45;66.21;102317.62;1798013;80;21192;-54
2023/01/25 10:35:44;;;;;;;25.15;17.50;;;;;;;3.55;66.13;102313.42;1798262;79;21188;-52
2023/01/25 10:38:58;;;;;;;28.87;18.20;;;;;;;3.60;66.07;102312.70;1798593;80;21558;-53
2023/01/25 10:42:07;;;;;;;24.90;18.02;;;;;;;3.65;65.88;102303.84;1798592;79;21169;-52
2023/01/25 10:45:20;;;;;;;44.48;23.38;;;;;;;3.46;65.61;102296.34;1798384;80;21181;-53
2023/01/25 10:48:32;;;;;;;29.63;18.15;;;;;;;3.39;65.72;102296.30;1794854;80;21233;-52
2023/01/25 10:51:40;;;;;;;24.95;15.70;;;;;;;3.49;65.90;102293.46;1787801;77;22013;-52
2023/01/25 10:54:51;;;;;;;59.90;27.42;;;;;;;3.56;65.88;102289.94;1817033;77;21232;-53
2023/01/25 10:58:03;;;;;;;47.62;23.05;;;;;;;3.48;65.70;102289.48;1794505;78;21725;-53
2023/01/25 11:01:10;;;;;;;35.87;17.33;;;;;;;3.50;65.80;102290.29;1813333;79;22138;-54
2023/01/25 11:04:38;;;;;;;23.22;15.88;;;;;;;3.51;65.93;102282.55;1806499;79;21952;-53
2023/01/25 11:07:45;;;;;;;24.32;16.10;;;;;;;3.49;65.61;102278.58;1735422;82;21200;-54
2023/01/25 11:10:50;;;;;;;22.52;15.20;;;;;;;3.41;65.40;102285.39;1756449;81;21809;-53
2023/01/25 11:13:55;;;;;;;29.32;16.75;;;;;;;3.22;65.16;102279.23;1769315;80;21185;-53
2023/01/25 11:17:03;;;;;;;25.32;16.57;;;;;;;3.09;65.21;102280.37;1723510;80;21205;-53
2023/01/25 11:20:25;;;;;;;25.65;16.25;;;;;;;2.94;65.17;102271.70;1813828;79;21745;-53
2023/01/25 11:23:32;;;;;;;;;;;;;;;2.86;65.32;102268.05;1816850;79;21255;-54
2023/01/25 11:26:40;;;;;;;51.08;23.12;;;;;;;2.93;65.60;102252.38;1803452;79;20213;-54
2023/01/25 11:29:47;;;;;;;49.55;23.73;;;;;;;3.04;65.84;102259.44;1804265;79;21200;-53
2023/01/25 11:32:55;;;;;;;39.38;20.60;;;;;;;3.13;65.95;102253.99;1765079;80;21729;-56
2023/01/25 11:36:33;;;;;;;46.68;22.42;;;;;;;3.25;65.99;102254.20;1801622;79;21204;-53
2023/01/25 11:40:17;;;;;;;39.40;21.00;;;;;;;3.32;65.90;102256.09;1803504;79;21189;-53
2023/01/25 11:43:50;;;;;;;58.30;27.70;;;;;;;3.39;65.79;102250.75;1781179;79;21346;-54
2023/01/25 11:47:49;;;;;;;29.10;17.85;;;;;;;3.43;65.73;102248.25;1780892;79;21221;-54
2023/01/25 11:51:05;;;;;;;36.55;21.42;;;;;;;3.40;65.66;102250.66;1744618;81;21287;-56
2023/01/25 11:54:36;;;;;;;29.07;17.45;;;;;;;3.37;65.61;102242.72;1750519;80;21224;-54
2023/01/25 11:58:09;;;;;;;27.95;18.40;;;;;;;3.39;65.59;102249.40;1745186;81;21209;-55
2023/01/25 12:01:43;;;;;;;33.75;20.25;;;;;;;3.31;65.42;102242.18;1734640;82;21288;-54
2023/01/25 12:05:18;;;;;;;29.67;18.92;;;;;;;3.30;65.48;102245.35;1743766;81;21345;-52
2023/01/25 12:08:39;;;;;;;26.23;17.70;;;;;;;3.29;65.42;102250.38;1780614;79;21221;-52
2023/01/25 12:12:05;;;;;;;28.12;18.02;;;;;;;3.18;65.30;102244.69;1786933;79;21275;-54
2023/01/25 12:15:27;;;;;;;48.40;25.82;;;;;;;3.15;65.35;102243.97;1787363;79;21213;-55
2023/01/25 12:18:42;;;;;;;37.23;23.47;;;;;;;3.13;65.38;102239.11;1766393;79;21205;-54
2023/01/25 12:22:12;;;;;;;50.12;26.52;;;;;;;3.19;65.53;102238.80;1786483;79;21224;-55
2023/01/25 12:25:41;;;;;;;36.77;22.52;;;;;;;3.07;65.34;102248.45;1793675;78;21737;-54
2023/01/25 12:29:10;;;;;;;27.77;19.30;;;;;;;3.03;65.37;102247.73;1785454;79;21527;-54
2023/01/25 12:32:40;;;;;;;32.75;20.95;;;;;;;2.92;65.35;102243.84;1791886;79;21538;-54
2023/01/25 12:36:01;;;;;;;32.88;22.52;;;;;;;2.78;65.32;102238.30;1789570;79;21241;-56
2023/01/25 12:39:20;;;;;;;35.90;24.27;;;;;;;2.70;65.28;102240.53;1731021;79;21213;-54
2023/01/25 12:42:32;;;;;;;35.63;22.80;;;;;;;2.58;65.35;102241.19;1792652;79;21273;-54
2023/01/25 12:45:44;;;;;;;68.72;36.58;;;;;;;2.57;65.49;102233.55;1790103;79;21915;-54
2023/01/25 12:48:52;;;;;;;40.45;26.12;;;;;;;2.61;65.60;102231.56;1802731;79;21217;-55
2023/01/25 12:51:59;;;;;;;36.40;23.75;;;;;;;2.64;65.63;102224.64;1794857;78;22018;-54
2023/01/25 12:55:12;;;;;;;38.02;25.17;;;;;;;2.60;65.53;102224.42;1795187;79;21200;-55
2023/01/25 12:58:51;;;;;;;38.53;24.85;;;;;;;2.53;65.56;102221.62;1771336;79;21519;-54
2023/01/25 13:02:23;;;;;;;63.73;34.25;;;;;;;2.44;65.39;102212.66;1783296;79;21855;-54
2023/01/25 13:05:55;;;;;;;55.50;31.40;;;;;;;2.48;65.68;102216.93;1785194;79;21220;-54
2023/01/25 13:09:22;;;;;;;48.70;26.30;;;;;;;2.61;65.86;102210.82;1797649;79;21598;-54
2023/01/25 13:12:29;;;;;;;35.17;23.15;;;;;;;2.73;65.88;102207.92;1789973;78;21235;-54
2023/01/25 13:15:49;;;;;;;60.60;32.13;;;;;;;2.69;65.62;102203.65;1809579;77;21185;-54
2023/01/25 13:18:55;;;;;;;86.45;44.60;;;;;;;2.63;65.59;102202.13;1784678;78;21578;-54
2023/01/25 13:22:04;;;;;;;69.97;35.88;;;;;;;2.63;65.60;102203.98;1756337;79;21695;-54
2023/01/25 13:25:13;;;;;;;82.78;46.00;;;;;;;2.63;65.64;102201.28;1776601;79;21212;-54
2023/01/25 13:28:49;;;;;;;62.20;35.17;;;;;;;2.66;65.73;102195.70;1768269;80;21197;-54
2023/01/25 13:31:55;;;;;;;55.78;33.60;;;;;;;2.67;65.70;102192.03;1765280;80;21759;-53
2023/01/25 13:35:04;;;;;;;54.35;32.13;;;;;;;2.59;65.55;102181.63;1767680;80;21737;-54
2023/01/25 13:38:16;;;;;;;58.95;32.70;;;;;;;2.47;65.40;102182.77;1777963;80;21714;-54
2023/01/25 13:41:22;;;;;;;51.55;30.85;;;;;;;2.43;65.50;102187.91;1793244;79;21252;-54
2023/01/25 13:44:40;;;;;;;57.60;32.17;;;;;;;2.41;65.51;102184.44;1776037;79;21848;-61
2023/01/25 13:47:49;;;;;;;56.23;32.70;;;;;;;2.37;65.53;102186.89;1788717;79;21228;-61
2023/01/25 13:51:02;;;;;;;56.35;32.53;;;;;;;2.33;65.51;102187.52;1772758;79;21201;-62
2023/01/25 13:54:10;;;;;;;54.70;32.35;;;;;;;2.33;65.62;102188.02;1785054;80;21213;-60
2023/01/25 13:57:21;;;;;;;56.13;33.13;;;;;;;2.32;65.61;102187.59;1796834;79;21189;-62
2023/01/25 14:00:27;;;;;;;55.25;32.78;;;;;;;2.30;65.63;102184.12;1797435;80;21276;-61
2023/01/25 14:03:49;;;;;;;52.70;32.45;;;;;;;2.30;65.64;102184.12;1759765;80;21582;-61
2023/01/25 14:06:54;;;;;;;54.48;31.05;;;;;;;2.21;65.43;102181.88;1795827;78;21276;-60
2023/01/25 14:10:00;;;;;;;52.03;31.33;;;;;;;2.09;65.50;102180.70;1777650;78;21754;-60
2023/01/25 14:13:06;;;;;;;58.55;33.65;;;;;;;2.01;65.51;102185.61;1784266;79;21511;-61
2023/01/25 14:16:16;;;;;;;54.48;33.15;;;;;;;1.94;65.53;102184.62;1796751;78;21263;-60
2023/01/25 14:19:35;;;;;;;55.98;33.10;;;;;;;1.89;65.62;102179.46;1789661;80;21193;-61
2023/01/25 14:22:41;;;;;;;58.75;35.05;;;;;;;1.85;65.64;102185.09;1733433;82;21765;-60
2023/01/25 14:25:48;;;;;;;69.58;39.60;;;;;;;1.83;65.74;102191.04;1735848;80;21507;-60
2023/01/25 14:28:57;;;;;;;56.30;34.40;;;;;;;1.77;65.77;102182.78;1723331;82;21201;-60
2023/01/25 14:32:07;;;;;;;50.33;32.25;;;;;;;1.75;65.79;102186.49;1735088;81;21283;-61
2023/01/25 14:35:48;;;;;;;51.18;29.12;;;;;;;1.70;65.77;102185.87;1736419;81;21534;-62
2023/01/25 14:38:58;;;;;;;45.33;27.93;;;;;;;1.66;65.79;102188.31;1713138;82;21216;-61
2023/01/25 14:42:05;;;;;;;52.03;31.45;;;;;;;1.60;65.77;102181.87;1711693;83;21747;-61